createdAt,value
2023-11-25T00:00:23.515Z,22.47
2023-11-25T00:02:25.003Z,22.49
2023-11-25T00:04:26.443Z,22.59
2023-11-25T00:06:28.960Z,22.66
2023-11-25T00:08:30.320Z,22.65
2023-11-25T00:10:31.703Z,22.69
2023-11-25T00:12:33.199Z,22.65
2023-11-25T00:14:35.054Z,22.62
2023-11-25T00:16:36.565Z,22.62
2023-11-25T00:18:37.988Z,22.65
2023-11-25T00:20:39.338Z,22.45
2023-11-25T00:22:40.766Z,22.26
2023-11-25T00:24:42.184Z,22.55
2023-11-25T00:26:43.889Z,22.68
2023-11-25T00:28:45.842Z,22.79
2023-11-25T00:30:47.230Z,22.94
2023-11-25T00:32:48.618Z,22.98
2023-11-25T00:34:49.957Z,23.02
2023-11-25T00:36:52.676Z,23.05
2023-11-25T00:38:54.036Z,23.03
2023-11-25T00:40:55.379Z,22.99
2023-11-25T00:42:56.863Z,23.00
2023-11-25T00:44:58.247Z,23.01
2023-11-25T00:46:59.640Z,23.03
2023-11-25T00:49:01.045Z,22.96
2023-11-25T00:51:02.523Z,22.95
2023-11-25T00:53:04.156Z,22.98
2023-11-25T00:55:05.584Z,22.89
2023-11-25T00:57:06.935Z,22.83
2023-11-25T00:59:09.211Z,22.84
2023-11-25T01:01:10.686Z,22.77
2023-11-25T01:03:12.110Z,22.83
2023-11-25T01:05:13.541Z,22.83
2023-11-25T01:07:14.880Z,22.75
2023-11-25T01:09:17.397Z,22.79
2023-11-25T01:11:18.807Z,22.76
2023-11-25T01:13:20.240Z,22.75
2023-11-25T01:15:21.593Z,22.77
2023-11-25T01:17:24.549Z,22.70
2023-11-25T01:19:25.916Z,22.80
2023-11-25T01:21:27.253Z,22.51
2023-11-25T01:23:28.669Z,22.12
2023-11-25T01:25:30.067Z,22.22
2023-11-25T01:27:31.923Z,22.41
2023-11-25T01:29:33.243Z,22.50
2023-11-25T01:31:34.737Z,22.52
2023-11-25T01:33:36.211Z,22.47
2023-11-25T01:35:39.467Z,22.49
2023-11-25T01:37:41.121Z,22.56
2023-11-25T01:39:43.137Z,22.63
2023-11-25T01:41:47.387Z,22.70
2023-11-25T01:43:48.861Z,22.78
2023-11-25T01:45:50.418Z,22.73
2023-11-25T01:47:53.368Z,22.72
2023-11-25T01:49:54.702Z,22.72
2023-11-25T01:51:56.178Z,22.84
2023-11-25T01:53:57.559Z,22.84
2023-11-25T01:55:59.636Z,22.88
2023-11-25T01:58:01.030Z,22.95
2023-11-25T02:00:04.108Z,22.93
2023-11-25T02:02:08.785Z,22.96
2023-11-25T02:04:10.351Z,23.03
2023-11-25T02:06:11.747Z,23.03
2023-11-25T02:08:13.117Z,23.02
2023-11-25T02:10:16.420Z,22.99
2023-11-25T02:12:17.794Z,22.94
2023-11-25T02:14:19.571Z,22.90
2023-11-25T02:16:21.460Z,22.87
2023-11-25T02:18:23.917Z,22.86
2023-11-25T02:20:25.274Z,22.85
2023-11-25T02:22:27.516Z,22.81
2023-11-25T02:24:31.165Z,22.77
2023-11-25T02:26:32.896Z,22.78
2023-11-25T02:28:35.955Z,22.72
2023-11-25T02:30:37.491Z,22.72
2023-11-25T02:32:39.030Z,22.66
2023-11-25T02:34:41.037Z,22.61
2023-11-25T02:36:42.737Z,22.58
2023-11-25T02:38:44.597Z,22.59
2023-11-25T02:40:46.068Z,22.57
2023-11-25T02:42:48.571Z,22.58
2023-11-25T02:44:49.918Z,22.56
2023-11-25T02:46:51.306Z,22.53
2023-11-25T02:48:52.658Z,22.58
2023-11-25T02:50:53.994Z,22.53
2023-11-25T02:52:55.427Z,22.50
2023-11-25T02:54:56.753Z,22.51
2023-11-25T02:56:58.119Z,22.47
2023-11-25T02:58:59.836Z,22.44
2023-11-25T03:01:09.557Z,22.24
2023-11-25T03:03:14.166Z,22.27
2023-11-25T03:05:15.824Z,22.51
2023-11-25T03:07:17.197Z,22.57
2023-11-25T03:09:18.864Z,22.64
2023-11-25T03:11:22.077Z,22.77
2023-11-25T03:13:24.230Z,22.78
2023-11-25T03:15:25.639Z,22.77
2023-11-25T03:17:28.826Z,22.80
2023-11-25T03:19:30.257Z,22.82
2023-11-25T03:21:31.726Z,23.00
2023-11-25T03:23:33.098Z,23.04
2023-11-25T03:25:35.047Z,23.01
2023-11-25T03:27:36.451Z,23.03
2023-11-25T03:29:37.809Z,23.07
2023-11-25T03:31:39.310Z,23.14
2023-11-25T03:33:40.701Z,23.08
2023-11-25T03:35:42.866Z,23.04
2023-11-25T03:37:44.221Z,22.99
2023-11-25T03:39:45.906Z,22.94
2023-11-25T03:41:47.397Z,22.90
2023-11-25T03:43:48.730Z,22.83
2023-11-25T03:45:50.105Z,22.82
2023-11-25T03:47:52.795Z,22.79
2023-11-25T03:49:54.256Z,22.84
2023-11-25T03:51:55.664Z,22.77
2023-11-25T03:53:57.213Z,22.49
2023-11-25T03:56:01.099Z,22.28
2023-11-25T03:58:04.207Z,22.11
2023-11-25T04:00:15.311Z,22.00
2023-11-25T04:02:16.829Z,21.88
2023-11-25T04:04:18.978Z,21.77
2023-11-25T04:06:20.686Z,21.72
2023-11-25T04:08:22.404Z,21.66
2023-11-25T04:10:23.784Z,21.61
2023-11-25T04:12:25.164Z,21.55
2023-11-25T04:14:26.903Z,20.65
2023-11-25T04:16:28.346Z,21.47
2023-11-25T04:18:29.769Z,21.45
2023-11-25T04:20:34.450Z,21.41
2023-11-25T04:22:36.263Z,21.35
2023-11-25T04:24:37.623Z,21.33
2023-11-25T04:26:39.007Z,21.27
2023-11-25T04:28:40.891Z,21.21
2023-11-25T04:30:42.265Z,21.15
2023-11-25T04:32:44.234Z,21.11
2023-11-25T04:34:45.688Z,21.07
2023-11-25T04:36:47.042Z,21.05
2023-11-25T04:38:48.435Z,21.00
2023-11-25T04:40:49.829Z,20.95
2023-11-25T04:42:51.255Z,20.93
2023-11-25T04:44:52.614Z,20.97
2023-11-25T04:46:54.070Z,21.03
2023-11-25T04:48:55.517Z,21.11
2023-11-25T04:50:56.847Z,21.18
2023-11-25T04:52:58.545Z,21.29
2023-11-25T04:54:59.873Z,21.42
2023-11-25T04:57:03.199Z,21.54
2023-11-25T04:59:06.436Z,21.65
2023-11-25T05:01:07.797Z,21.76
2023-11-25T05:03:10.681Z,21.85
2023-11-25T05:05:12.405Z,21.94
2023-11-25T05:07:13.809Z,22.01
2023-11-25T05:09:15.151Z,22.04
2023-11-25T05:11:16.484Z,22.07
2023-11-25T05:13:17.875Z,22.12
2023-11-25T05:15:19.610Z,21.21
2023-11-25T05:17:21.178Z,22.14
2023-11-25T05:19:23.191Z,22.18
2023-11-25T05:21:24.594Z,22.18
2023-11-25T05:23:26.960Z,22.19
2023-11-25T05:25:28.317Z,22.19
2023-11-25T05:27:29.712Z,22.16
2023-11-25T05:29:31.367Z,22.11
2023-11-25T05:31:34.623Z,22.11
2023-11-25T05:33:36.134Z,22.05
2023-11-25T05:35:37.483Z,22.02
2023-11-25T05:37:38.929Z,21.93
2023-11-25T05:39:42.098Z,21.93
2023-11-25T05:41:44.258Z,21.88
2023-11-25T05:43:48.241Z,21.85
2023-11-25T05:45:49.677Z,21.79
2023-11-25T05:47:52.489Z,21.77
2023-11-25T05:49:53.996Z,21.74
2023-11-25T05:51:57.708Z,21.69
2023-11-25T05:54:00.534Z,21.67
2023-11-25T05:56:01.879Z,21.64
2023-11-25T05:58:03.286Z,21.62
2023-11-25T06:00:04.669Z,21.61
2023-11-25T06:02:06.087Z,21.57
2023-11-25T06:04:07.623Z,21.54
2023-11-25T06:06:09.036Z,21.53
2023-11-25T06:08:10.404Z,21.51
2023-11-25T06:10:11.981Z,21.49
2023-11-25T06:12:14.738Z,21.49
2023-11-25T06:14:16.684Z,21.48
2023-11-25T06:16:18.109Z,21.46
2023-11-25T06:18:21.589Z,21.46
2023-11-25T06:20:26.366Z,21.52
2023-11-25T06:22:27.939Z,21.54
2023-11-25T06:24:29.351Z,21.53
2023-11-25T06:26:30.758Z,21.52
2023-11-25T06:28:32.089Z,21.53
2023-11-25T06:30:33.596Z,21.57
2023-11-25T06:32:35.102Z,21.59
2023-11-25T06:34:36.605Z,21.58
2023-11-25T06:36:39.152Z,21.61
2023-11-25T06:38:41.250Z,21.63
2023-11-25T06:40:42.712Z,21.67
2023-11-25T06:42:44.132Z,21.73
2023-11-25T06:44:48.481Z,21.76
2023-11-25T06:46:50.542Z,21.79
2023-11-25T06:48:53.770Z,21.82
2023-11-25T06:50:55.251Z,21.85
2023-11-25T06:52:56.583Z,21.89
2023-11-25T06:54:57.970Z,21.91
2023-11-25T06:56:59.351Z,22.01
2023-11-25T06:59:01.390Z,21.91
2023-11-25T07:01:05.677Z,21.85
2023-11-25T07:03:07.160Z,21.87
2023-11-25T07:05:11.754Z,21.87
2023-11-25T07:07:14.791Z,21.85
2023-11-25T07:09:16.174Z,21.84
2023-11-25T07:11:17.566Z,21.79
2023-11-25T07:13:18.998Z,21.78
2023-11-25T07:15:20.397Z,21.76
2023-11-25T07:17:23.270Z,21.71
2023-11-25T07:19:24.843Z,21.71
2023-11-25T07:21:26.331Z,21.68
2023-11-25T07:23:27.729Z,21.67
2023-11-25T07:25:30.415Z,21.66
2023-11-25T07:27:31.769Z,21.63
2023-11-25T07:29:33.409Z,21.60
2023-11-25T07:31:34.872Z,21.60
2023-11-25T07:33:36.280Z,21.58
2023-11-25T07:35:37.610Z,21.57
2023-11-25T07:37:39.989Z,21.57
2023-11-25T07:39:41.503Z,21.57
2023-11-25T07:41:42.833Z,21.54
2023-11-25T07:43:44.215Z,21.53
2023-11-25T07:45:45.569Z,21.52
2023-11-25T07:47:46.941Z,21.50
2023-11-25T07:49:48.385Z,21.50
2023-11-25T07:51:49.869Z,21.49
2023-11-25T07:53:51.274Z,21.50
2023-11-25T07:55:52.709Z,21.51
2023-11-25T07:57:54.123Z,21.53
2023-11-25T07:59:58.383Z,21.57
2023-11-25T08:01:59.822Z,21.62
2023-11-25T08:04:01.371Z,21.63
2023-11-25T08:06:02.856Z,21.69
2023-11-25T08:08:04.576Z,21.83
2023-11-25T08:10:08.965Z,21.85
2023-11-25T08:12:10.375Z,21.91
2023-11-25T08:14:11.708Z,21.93
2023-11-25T08:16:13.146Z,21.95
2023-11-25T08:18:17.086Z,21.96
2023-11-25T08:20:18.526Z,21.97
2023-11-25T08:22:19.908Z,21.97
2023-11-25T08:24:21.377Z,21.96
2023-11-25T08:26:22.746Z,21.93
2023-11-25T08:28:25.000Z,21.91
2023-11-25T08:30:26.411Z,21.89
2023-11-25T08:32:27.943Z,21.87
2023-11-25T08:34:29.390Z,21.81
2023-11-25T08:36:30.758Z,21.83
2023-11-25T08:38:32.166Z,21.78
2023-11-25T08:40:35.751Z,21.77
2023-11-25T08:42:37.155Z,21.75
2023-11-25T08:44:38.599Z,21.72
2023-11-25T08:46:41.017Z,21.70
2023-11-25T08:48:43.201Z,21.67
2023-11-25T08:50:44.559Z,21.66
2023-11-25T08:52:47.832Z,21.65
2023-11-25T08:54:50.745Z,21.64
2023-11-25T08:56:53.726Z,21.61
2023-11-25T08:59:05.905Z,21.61
2023-11-25T09:01:09.748Z,21.63
2023-11-25T09:03:11.555Z,21.69
2023-11-25T09:05:16.027Z,21.68
2023-11-25T09:07:18.487Z,21.67
2023-11-25T09:09:20.555Z,21.69
2023-11-25T09:11:21.987Z,21.63
2023-11-25T09:13:23.373Z,21.65
2023-11-25T09:15:24.779Z,21.68
2023-11-25T09:17:26.755Z,21.72
2023-11-25T09:19:28.148Z,21.74
2023-11-25T09:21:30.065Z,21.76
2023-11-25T09:23:31.432Z,21.76
2023-11-25T09:25:32.897Z,21.80
2023-11-25T09:27:34.474Z,21.84
2023-11-25T09:29:35.889Z,21.92
2023-11-25T09:31:37.254Z,21.94
2023-11-25T09:33:38.724Z,21.96
2023-11-25T09:35:40.174Z,22.00
2023-11-25T09:37:41.668Z,22.03
2023-11-25T09:39:43.070Z,22.04
2023-11-25T09:41:44.593Z,22.04
2023-11-25T09:43:46.282Z,22.05
2023-11-25T09:45:47.660Z,22.04
2023-11-25T09:47:49.016Z,22.03
2023-11-25T09:49:50.438Z,22.00
2023-11-25T09:51:51.784Z,21.99
2023-11-25T09:53:53.097Z,21.93
2023-11-25T09:55:54.497Z,21.91
2023-11-25T09:57:55.925Z,21.87
2023-11-25T09:59:57.247Z,21.86
2023-11-25T10:01:59.324Z,21.82
2023-11-25T10:04:00.985Z,21.77
2023-11-25T10:06:02.737Z,21.75
2023-11-25T10:08:05.533Z,21.76
2023-11-25T10:10:07.035Z,21.72
2023-11-25T10:12:09.043Z,21.68
2023-11-25T10:14:10.489Z,21.65
2023-11-25T10:16:11.959Z,21.70
2023-11-25T10:18:13.299Z,21.70
2023-11-25T10:20:20.355Z,21.69
2023-11-25T10:22:21.958Z,21.67
2023-11-25T10:24:23.696Z,21.65
2023-11-25T10:26:26.166Z,21.63
2023-11-25T10:28:27.696Z,21.61
2023-11-25T10:30:30.137Z,21.62
2023-11-25T10:32:31.620Z,21.60
2023-11-25T10:34:33.022Z,21.62
2023-11-25T10:36:34.439Z,21.62
2023-11-25T10:38:35.801Z,21.64
2023-11-25T10:40:37.239Z,21.65
2023-11-25T10:42:38.599Z,21.67
2023-11-25T10:44:39.929Z,21.70
2023-11-25T10:46:42.391Z,21.75
2023-11-25T10:48:43.883Z,21.81
2023-11-25T10:50:45.263Z,21.86
2023-11-25T10:52:47.021Z,21.92
2023-11-25T10:54:48.430Z,21.97
2023-11-25T10:56:49.759Z,22.01
2023-11-25T10:58:51.177Z,22.03
2023-11-25T11:00:52.566Z,22.05
2023-11-25T11:02:58.346Z,22.06
2023-11-25T11:05:00.056Z,22.07
2023-11-25T11:07:02.344Z,22.09
2023-11-25T11:09:04.533Z,22.05
2023-11-25T11:11:06.099Z,22.07
2023-11-25T11:13:07.507Z,22.07
2023-11-25T11:15:11.155Z,22.04
2023-11-25T11:17:13.287Z,22.05
2023-11-25T11:19:14.811Z,22.05
2023-11-25T11:21:17.001Z,22.18
2023-11-25T11:23:18.391Z,22.08
2023-11-25T11:25:20.452Z,21.96
2023-11-25T11:27:21.914Z,21.99
2023-11-25T11:29:26.537Z,21.79
2023-11-25T11:31:29.361Z,21.66
2023-11-25T11:33:31.441Z,21.57
2023-11-25T11:35:32.807Z,21.49
2023-11-25T11:37:34.160Z,21.44
2023-11-25T11:39:35.675Z,21.39
2023-11-25T11:41:39.286Z,21.38
2023-11-25T11:43:40.714Z,21.34
2023-11-25T11:45:43.366Z,21.30
2023-11-25T11:47:45.829Z,21.29
2023-11-25T11:49:47.240Z,21.26
2023-11-25T11:51:48.621Z,21.24
2023-11-25T11:53:50.024Z,21.21
2023-11-25T11:55:52.929Z,21.23
2023-11-25T11:57:54.376Z,21.22
2023-11-25T11:59:55.721Z,21.24
2023-11-25T12:01:57.267Z,21.25
2023-11-25T12:03:58.938Z,21.28
2023-11-25T12:06:00.370Z,21.32
2023-11-25T12:08:04.825Z,21.39
2023-11-25T12:10:06.879Z,21.45
2023-11-25T12:12:08.257Z,21.49
2023-11-25T12:14:09.742Z,21.57
2023-11-25T12:16:11.158Z,21.60
2023-11-25T12:18:12.588Z,21.64
2023-11-25T12:20:14.753Z,21.68
2023-11-25T12:22:16.084Z,21.70
2023-11-25T12:24:17.411Z,21.72
2023-11-25T12:26:18.798Z,21.74
2023-11-25T12:28:20.115Z,21.73
2023-11-25T12:30:21.459Z,21.74
2023-11-25T12:32:22.877Z,21.72
2023-11-25T12:34:24.273Z,21.71
2023-11-25T12:36:25.645Z,21.71
2023-11-25T12:38:32.519Z,21.68
2023-11-25T12:40:33.950Z,21.67
2023-11-25T12:42:35.353Z,20.69
2023-11-25T12:44:38.658Z,21.59
2023-11-25T12:46:40.192Z,21.55
2023-11-25T12:48:42.387Z,21.51
2023-11-25T12:50:43.767Z,21.50
2023-11-25T12:52:47.053Z,21.48
2023-11-25T12:54:50.533Z,21.43
2023-11-25T12:56:53.147Z,21.39
2023-11-25T12:58:54.556Z,21.35
2023-11-25T13:00:58.893Z,21.29
2023-11-25T13:03:00.580Z,21.25
2023-11-25T13:05:03.050Z,21.24
2023-11-25T13:07:04.472Z,21.21
2023-11-25T13:09:07.396Z,21.18
2023-11-25T13:11:12.107Z,21.18
2023-11-25T13:13:13.435Z,21.16
2023-11-25T13:15:14.761Z,21.13
2023-11-25T13:17:16.192Z,21.13
2023-11-25T13:19:18.187Z,21.11
2023-11-25T13:21:19.941Z,21.11
2023-11-25T13:23:21.382Z,21.11
2023-11-25T13:25:22.743Z,21.12
2023-11-25T13:27:24.103Z,21.14
2023-11-25T13:29:25.449Z,21.15
2023-11-25T13:31:26.985Z,21.19
2023-11-25T13:33:28.450Z,21.25
2023-11-25T13:35:31.029Z,21.29
2023-11-25T13:37:32.553Z,21.33
2023-11-25T13:39:37.183Z,21.38
2023-11-25T13:41:38.649Z,21.41
2023-11-25T13:43:40.095Z,21.45
2023-11-25T13:45:42.657Z,21.53
2023-11-25T13:47:44.097Z,21.55
2023-11-25T13:49:45.517Z,21.59
2023-11-25T13:51:46.902Z,21.62
2023-11-25T13:53:49.370Z,21.61
2023-11-25T13:55:50.716Z,21.60
2023-11-25T13:57:55.383Z,21.62
2023-11-25T13:59:56.778Z,21.59
2023-11-25T14:01:58.384Z,21.60
2023-11-25T14:04:02.538Z,21.58
2023-11-25T14:06:04.413Z,21.54
2023-11-25T14:08:08.026Z,21.52
2023-11-25T14:10:09.442Z,21.48
2023-11-25T14:12:10.806Z,21.45
2023-11-25T14:14:13.315Z,21.43
2023-11-25T14:16:14.749Z,21.42
2023-11-25T14:18:16.144Z,21.41
2023-11-25T14:20:17.586Z,21.37
2023-11-25T14:22:20.100Z,21.34
2023-11-25T14:24:22.701Z,21.30
2023-11-25T14:26:25.909Z,21.28
2023-11-25T14:28:27.314Z,21.20
2023-11-25T14:30:30.113Z,21.16
2023-11-25T14:32:31.644Z,21.10
2023-11-25T14:34:33.015Z,21.08
2023-11-25T14:36:34.558Z,21.06
2023-11-25T14:38:36.740Z,21.06
2023-11-25T14:40:40.352Z,21.05
2023-11-25T14:42:42.086Z,21.04
2023-11-25T14:44:45.671Z,21.04
2023-11-25T14:46:47.057Z,21.04
2023-11-25T14:48:48.720Z,21.02
2023-11-25T14:50:50.061Z,21.02
2023-11-25T14:52:51.464Z,21.03
2023-11-25T14:54:52.898Z,21.05
2023-11-25T14:56:54.221Z,21.07
2023-11-25T14:58:55.679Z,21.11
2023-11-25T15:00:57.113Z,21.16
2023-11-25T15:03:00.553Z,21.20
2023-11-25T15:05:02.085Z,20.29
2023-11-25T15:07:03.505Z,21.27
2023-11-25T15:09:04.829Z,21.31
2023-11-25T15:11:06.275Z,21.38
2023-11-25T15:13:08.148Z,19.60
2023-11-25T15:15:09.742Z,16.81
2023-11-25T15:17:11.486Z,16.08
2023-11-25T15:19:12.974Z,18.16
2023-11-25T15:21:14.377Z,19.52
2023-11-25T15:23:15.739Z,20.23
2023-11-25T15:25:17.125Z,20.91
2023-11-25T15:27:19.349Z,21.67
2023-11-25T15:29:20.850Z,22.13
2023-11-25T15:31:22.264Z,22.41
2023-11-25T15:33:23.880Z,22.61
2023-11-25T15:35:25.238Z,22.73
2023-11-25T15:37:26.654Z,22.86
2023-11-25T15:39:28.396Z,22.91
2023-11-25T15:41:29.833Z,22.96
2023-11-25T15:43:31.379Z,22.94
2023-11-25T15:45:33.646Z,23.02
2023-11-25T15:47:35.293Z,23.08
2023-11-25T15:49:36.705Z,23.09
2023-11-25T15:51:38.172Z,23.09
2023-11-25T15:53:39.568Z,23.17
2023-11-25T15:55:40.996Z,23.14
2023-11-25T15:57:42.392Z,23.15
2023-11-25T15:59:43.784Z,23.13
2023-11-25T16:01:45.410Z,23.35
2023-11-25T16:03:46.841Z,23.38
2023-11-25T16:05:48.174Z,23.34
2023-11-25T16:07:49.642Z,23.21
2023-11-25T16:09:51.062Z,23.04
2023-11-25T16:11:52.466Z,23.03
2023-11-25T16:13:53.874Z,22.90
2023-11-25T16:15:55.267Z,22.52
2023-11-25T16:17:56.675Z,22.54
2023-11-25T16:19:58.936Z,22.69
2023-11-25T16:22:00.274Z,22.73
2023-11-25T16:24:01.664Z,22.66
2023-11-25T16:26:03.076Z,22.66
2023-11-25T16:28:04.614Z,22.63
2023-11-25T16:30:07.173Z,22.68
2023-11-25T16:32:08.729Z,22.71
2023-11-25T16:34:13.670Z,22.41
2023-11-25T16:36:15.065Z,21.97
2023-11-25T16:38:19.420Z,21.64
2023-11-25T16:40:23.724Z,21.85
2023-11-25T16:42:25.098Z,21.99
2023-11-25T16:44:26.451Z,22.06
2023-11-25T16:46:27.890Z,22.11
2023-11-25T16:48:39.241Z,22.14
2023-11-25T16:50:49.994Z,22.13
2023-11-25T16:52:51.343Z,22.13
2023-11-25T16:54:52.725Z,22.09
2023-11-25T16:56:54.128Z,22.04
2023-11-25T16:58:55.514Z,22.08
2023-11-25T17:00:57.976Z,22.28
2023-11-25T17:02:59.686Z,22.29
2023-11-25T17:05:01.249Z,22.37
2023-11-25T17:07:10.020Z,22.39
2023-11-25T17:09:12.309Z,22.42
2023-11-25T17:11:13.681Z,22.50
2023-11-25T17:13:16.143Z,22.59
2023-11-25T17:15:17.519Z,22.88
2023-11-25T17:17:19.014Z,23.02
2023-11-25T17:19:21.689Z,22.97
2023-11-25T17:21:23.016Z,22.97
2023-11-25T17:23:24.351Z,22.96
2023-11-25T17:25:25.720Z,22.96
2023-11-25T17:27:27.055Z,23.07
2023-11-25T17:29:28.508Z,23.07
2023-11-25T17:31:29.845Z,23.15
2023-11-25T17:33:31.190Z,21.81
2023-11-25T17:35:32.676Z,22.57
2023-11-25T17:37:34.052Z,22.77
2023-11-25T17:39:36.696Z,22.85
2023-11-25T17:41:38.786Z,22.87
2023-11-25T17:43:40.185Z,22.94
2023-11-25T17:45:42.491Z,22.95
2023-11-25T17:47:43.852Z,22.91
2023-11-25T17:49:46.374Z,22.92
2023-11-25T17:51:47.931Z,22.97
2023-11-25T17:53:49.279Z,22.89
2023-11-25T17:55:50.688Z,22.87
2023-11-25T17:57:52.291Z,22.78
2023-11-25T17:59:53.678Z,22.80
2023-11-25T18:01:55.310Z,22.79
2023-11-25T18:03:56.945Z,22.71
2023-11-25T18:05:58.413Z,22.67
2023-11-25T18:07:59.749Z,22.65
2023-11-25T18:10:01.177Z,22.67
2023-11-25T18:12:02.538Z,22.71
2023-11-25T18:14:04.001Z,22.75
2023-11-25T18:16:05.931Z,22.72
2023-11-25T18:18:07.327Z,22.67
2023-11-25T18:20:08.899Z,22.49
2023-11-25T18:22:10.758Z,22.27
2023-11-25T18:24:12.097Z,22.43
2023-11-25T18:26:16.496Z,22.53
2023-11-25T18:28:18.576Z,22.61
2023-11-25T18:30:21.197Z,22.69
2023-11-25T18:32:22.588Z,22.76
2023-11-25T18:34:23.928Z,22.76
2023-11-25T18:36:25.342Z,22.80
2023-11-25T18:38:26.676Z,22.83
2023-11-25T18:40:32.390Z,22.79
2023-11-25T18:42:34.620Z,22.84
2023-11-25T18:44:36.463Z,22.97
2023-11-25T18:46:38.017Z,23.11
2023-11-25T18:48:39.492Z,23.21
2023-11-25T18:50:40.937Z,23.27
2023-11-25T18:52:42.337Z,23.27
2023-11-25T18:54:43.712Z,23.25
2023-11-25T18:56:45.074Z,23.27
2023-11-25T18:58:46.670Z,23.28
2023-11-25T19:00:48.414Z,23.52
2023-11-25T19:02:51.037Z,23.46
2023-11-25T19:04:52.603Z,23.41
2023-11-25T19:06:54.038Z,23.48
2023-11-25T19:08:55.442Z,23.39
2023-11-25T19:11:00.135Z,23.40
2023-11-25T19:13:01.693Z,23.40
2023-11-25T19:15:03.097Z,22.15
2023-11-25T19:17:06.682Z,23.13
2023-11-25T19:19:08.975Z,23.06
2023-11-25T19:21:10.311Z,23.04
2023-11-25T19:23:11.688Z,23.02
2023-11-25T19:25:13.068Z,23.00
2023-11-25T19:27:14.413Z,22.99
2023-11-25T19:29:17.107Z,23.00
2023-11-25T19:31:18.536Z,22.92
2023-11-25T19:33:20.599Z,22.93
2023-11-25T19:35:22.095Z,23.03
2023-11-25T19:37:25.176Z,22.96
2023-11-25T19:39:26.494Z,22.87
2023-11-25T19:41:28.782Z,22.93
2023-11-25T19:43:30.711Z,23.00
2023-11-25T19:45:32.042Z,22.99
2023-11-25T19:47:34.058Z,23.03
2023-11-25T19:49:35.720Z,23.05
2023-11-25T19:51:37.098Z,23.07
2023-11-25T19:53:50.041Z,23.09
2023-11-25T19:55:53.217Z,23.08
2023-11-25T19:57:56.704Z,23.09
2023-11-25T20:00:00.702Z,23.14
2023-11-25T20:02:02.256Z,22.43
2023-11-25T20:04:03.702Z,23.37
2023-11-25T20:06:05.112Z,23.40
2023-11-25T20:08:06.517Z,23.41
2023-11-25T20:10:09.490Z,23.40
2023-11-25T20:12:11.086Z,23.41
2023-11-25T20:14:14.178Z,23.43
2023-11-25T20:16:15.724Z,23.32
2023-11-25T20:18:19.210Z,23.00
2023-11-25T20:20:21.820Z,22.72
2023-11-25T20:22:23.198Z,21.83
2023-11-25T20:24:24.989Z,22.51
2023-11-25T20:26:26.836Z,23.07
2023-11-25T20:28:30.078Z,23.20
2023-11-25T20:30:31.478Z,23.27
2023-11-25T20:32:32.925Z,23.27
2023-11-25T20:34:34.357Z,23.39
2023-11-25T20:36:36.129Z,23.42
2023-11-25T20:38:37.448Z,23.37
2023-11-25T20:40:38.788Z,23.36
2023-11-25T20:42:42.438Z,23.53
2023-11-25T20:44:43.863Z,23.52
2023-11-25T20:46:45.286Z,23.66
2023-11-25T20:48:46.643Z,24.19
2023-11-25T20:50:48.021Z,24.13
2023-11-25T20:52:49.437Z,23.92
2023-11-25T20:54:56.765Z,23.80
2023-11-25T20:56:58.089Z,23.71
2023-11-25T20:59:01.762Z,23.68
2023-11-25T21:01:04.119Z,23.64
2023-11-25T21:03:05.785Z,23.65
2023-11-25T21:05:07.511Z,23.65
2023-11-25T21:07:09.200Z,23.67
2023-11-25T21:09:10.624Z,23.75
2023-11-25T21:11:12.230Z,23.73
2023-11-25T21:13:13.600Z,23.57
2023-11-25T21:15:15.346Z,23.57
2023-11-25T21:17:16.940Z,23.50
2023-11-25T21:19:18.261Z,23.47
2023-11-25T21:21:19.592Z,22.54
2023-11-25T21:23:20.974Z,23.48
2023-11-25T21:25:23.070Z,23.42
2023-11-25T21:27:24.617Z,23.44
2023-11-25T21:29:26.028Z,23.47
2023-11-25T21:31:27.401Z,23.45
2023-11-25T21:33:29.013Z,23.37
2023-11-25T21:35:30.421Z,23.38
2023-11-25T21:37:31.820Z,23.38
2023-11-25T21:39:33.160Z,23.36
2023-11-25T21:41:34.508Z,23.01
2023-11-25T21:43:35.877Z,22.82
2023-11-25T21:45:38.138Z,23.04
2023-11-25T21:47:39.569Z,23.27
2023-11-25T21:49:41.178Z,22.37
2023-11-25T21:51:42.615Z,23.55
2023-11-25T21:53:43.978Z,23.52
2023-11-25T21:55:45.364Z,23.56
2023-11-25T21:57:46.748Z,23.56
2023-11-25T21:59:48.198Z,23.57
2023-11-25T22:01:49.721Z,23.49
2023-11-25T22:03:51.267Z,23.51
2023-11-25T22:05:52.682Z,23.51
2023-11-25T22:07:54.102Z,23.53
2023-11-25T22:09:55.450Z,23.57
2023-11-25T22:11:57.077Z,23.58
2023-11-25T22:13:58.418Z,23.57
2023-11-25T22:15:59.915Z,23.67
2023-11-25T22:18:01.327Z,23.63
2023-11-25T22:20:03.053Z,23.59
2023-11-25T22:22:04.435Z,23.63
2023-11-25T22:24:05.762Z,23.57
2023-11-25T22:26:16.703Z,23.59
2023-11-25T22:28:18.139Z,23.59
2023-11-25T22:30:19.563Z,23.61
2023-11-25T22:32:21.044Z,23.59
2023-11-25T22:34:22.511Z,23.56
2023-11-25T22:36:24.458Z,23.69
2023-11-25T22:38:29.750Z,23.66
2023-11-25T22:40:31.113Z,23.63
2023-11-25T22:42:32.438Z,23.57
2023-11-25T22:44:33.876Z,23.57
2023-11-25T22:46:37.515Z,23.53
2023-11-25T22:48:38.982Z,23.37
2023-11-25T22:50:40.397Z,23.03
2023-11-25T22:52:42.618Z,22.95
2023-11-25T22:54:44.022Z,23.22
2023-11-25T22:56:45.413Z,23.48
2023-11-25T22:58:47.252Z,23.47
2023-11-25T23:00:53.514Z,23.48
2023-11-25T23:02:55.191Z,23.54
2023-11-25T23:04:56.629Z,23.57
2023-11-25T23:06:58.655Z,23.54
2023-11-25T23:09:00.030Z,23.60
2023-11-25T23:11:01.731Z,23.57
2023-11-25T23:13:03.138Z,23.60
2023-11-25T23:15:05.522Z,23.57
2023-11-25T23:17:06.970Z,23.60
2023-11-25T23:19:08.356Z,23.59
2023-11-25T23:21:10.348Z,23.56
2023-11-25T23:23:11.861Z,23.51
2023-11-25T23:25:13.214Z,23.51
2023-11-25T23:27:14.543Z,23.59
2023-11-25T23:29:16.517Z,23.57
2023-11-25T23:31:17.884Z,23.59
2023-11-25T23:33:19.338Z,23.63
2023-11-25T23:35:20.792Z,23.57
2023-11-25T23:37:22.133Z,23.57
2023-11-25T23:39:23.461Z,23.59
2023-11-25T23:41:24.819Z,23.66
2023-11-25T23:43:26.272Z,23.67
2023-11-25T23:45:27.628Z,23.61
2023-11-25T23:47:28.990Z,23.24
2023-11-25T23:49:30.412Z,23.00
2023-11-25T23:51:31.735Z,23.07
2023-11-25T23:53:33.187Z,23.30
2023-11-25T23:55:35.051Z,23.44
2023-11-25T23:57:38.530Z,23.48
2023-11-25T23:59:39.943Z,23.60
